Terminal Aerodrome Forecast
Issued by NWS

Home | Current Version | Previous Version | Graphics & Text | Print | Product List | Glossary On
Versions: 1 2 3 4 5 6 7 8 9 10 11 12 13 14 15 16 17
040
FTUS43 KMPX 181736
TAFAXN
TAF
KAXN 181736Z 1818/1918 16015KT P6SM OVC015
     FM190000 15011KT P6SM OVC008
     FM191600 15018G25KT P6SM OVC015=

USA.gov is the U.S. government's official web portal to all federal, state and local government web resources and services.